Time,TemperatureF,DewpointF,PressureIn,WindDirection,WindDirectionDegrees,WindSpeedMPH,WindSpeedGustMPH,Humidity,HourlyPrecipIn,Conditions,Clouds,dailyrainin,SolarRadiationWatts/m^2,SoftwareType,DateUTC
2013-01-13 00:03:00,1.9,-2.3,30.11,NNE,15,2.0,3.0,82,0.00,,SKC,0.00,0.00,VWS V14.00,2013-01-13 06:03:00,
2013-01-13 00:08:00,2.0,-2.2,30.11,NNE,15,2.0,3.0,82,0.00,,SKC,0.00,0.00,VWS V14.00,2013-01-13 06:08:00,
2013-01-13 00:13:00,2.0,-2.2,30.11,NNE,31,1.0,2.0,82,0.00,,SKC,0.00,0.00,VWS V14.00,2013-01-13 06:13:00,
2013-01-13 00:18:00,2.0,-2.2,30.11,North,9,2.0,2.0,82,0.00,,SKC,0.00,0.00,VWS V14.00,2013-01-13 06:18:00,
2013-01-13 00:23:00,2.0,-2.2,30.11,North,5,4.0,4.0,82,0.00,,SKC,0.00,0.00,VWS V14.00,2013-01-13 06:23:00,
2013-01-13 00:28:00,2.0,-2.2,30.11,North,5,1.0,3.0,82,0.00,,SKC,0.00,0.00,VWS V14.00,2013-01-13 06:28:00,
2013-01-13 00:33:00,2.0,-2.5,30.11,NNE,23,5.0,5.0,81,0.00,,SKC,0.00,0.00,VWS V14.00,2013-01-13 06:33:00,
2013-01-13 00:38:00,1.9,-2.6,30.11,NNE,23,3.0,4.0,81,0.00,,SKC,0.00,0.00,VWS V14.00,2013-01-13 06:38:00,
2013-01-13 00:43:00,1.9,-2.6,30.11,NNE,24,3.0,4.0,81,0.00,,SKC,0.00,0.00,VWS V14.00,2013-01-13 06:43:00,
2013-01-13 00:48:00,1.9,-2.6,30.11,North,360,4.0,4.0,81,0.00,,SKC,0.00,0.00,VWS V14.00,2013-01-13 06:48:00,
2013-01-13 00:53:00,1.9,-2.6,30.11,NE,46,3.0,7.0,81,0.00,,SKC,0.00,0.00,VWS V14.00,2013-01-13 06:53:00,
2013-01-13 00:58:00,1.8,-2.7,30.11,North,5,5.0,5.0,81,0.00,,SKC,0.00,0.00,VWS V14.00,2013-01-13 06:58:00,
2013-01-13 01:03:00,1.8,-2.7,30.11,North,5,3.0,4.0,81,0.00,,SKC,0.00,0.00,VWS V14.00,2013-01-13 07:03:00,
2013-01-13 01:08:00,1.8,-2.4,30.10,NNE,23,2.0,5.0,82,0.00,,SKC,0.00,0.00,VWS V14.00,2013-01-13 07:08:00,
2013-01-13 01:13:00,1.7,-2.8,30.10,NNE,15,3.0,5.0,81,0.00,,SKC,0.00,0.00,VWS V14.00,2013-01-13 07:13:00,
2013-01-13 01:18:00,1.7,-2.8,30.11,NNE,24,2.0,3.0,81,0.00,,SKC,0.00,0.00,VWS V14.00,2013-01-13 07:18:00,
2013-01-13 01:23:00,1.6,-2.9,30.11,NNE,22,5.0,6.0,81,0.00,,SKC,0.00,0.00,VWS V14.00,2013-01-13 07:23:00,
2013-01-13 01:28:00,1.5,-3.0,30.11,NNE,12,2.0,4.0,81,0.00,,SKC,0.00,0.00,VWS V14.00,2013-01-13 07:28:00,
2013-01-13 01:33:00,1.4,-3.1,30.11,NE,34,3.0,4.0,81,0.00,,SKC,0.00,0.00,VWS V14.00,2013-01-13 07:33:00,
2013-01-13 01:38:00,1.4,-3.1,30.11,NNW,346,3.0,7.0,81,0.00,,SKC,0.00,0.00,VWS V14.00,2013-01-13 07:38:00,
2013-01-13 01:43:00,1.3,-3.2,30.11,North,5,4.0,5.0,81,0.00,,SKC,0.00,0.00,VWS V14.00,2013-01-13 07:43:00,
2013-01-13 01:48:00,1.2,-3.3,30.11,North,10,1.0,3.0,81,0.00,,SKC,0.00,0.00,VWS V14.00,2013-01-13 07:48:00,
2013-01-13 01:53:00,1.1,-3.4,30.12,North,11,1.0,5.0,81,0.00,,SKC,0.00,0.00,VWS V14.00,2013-01-13 07:53:00,
2013-01-13 01:58:00,1.1,-3.4,30.12,NNE,32,1.0,3.0,81,0.00,,SKC,0.00,0.00,VWS V14.00,2013-01-13 07:58:00,
2013-01-13 02:04:00,1.0,-3.5,30.11,NNE,15,4.0,4.0,81,0.00,,SKC,0.00,0.00,VWS V14.00,2013-01-13 08:04:00,
2013-01-13 02:09:00,0.9,-3.5,30.11,North,360,3.0,6.0,81,0.00,,SKC,0.00,0.00,VWS V14.00,2013-01-13 08:09:00,
2013-01-13 02:14:00,0.7,-3.8,30.11,North,5,5.0,5.0,81,0.00,,SKC,0.00,0.00,VWS V14.00,2013-01-13 08:14:00,
2013-01-13 02:19:00,0.6,-3.8,30.11,North,5,3.0,4.0,81,0.00,,SKC,0.00,0.00,VWS V14.00,2013-01-13 08:19:00,
2013-01-13 02:24:00,0.5,-3.9,30.11,NNE,17,3.0,5.0,81,0.00,,SKC,0.00,0.00,VWS V14.00,2013-01-13 08:24:00,
2013-01-13 02:29:00,0.4,-4.0,30.11,NNE,18,2.0,4.0,81,0.00,,SKC,0.00,0.00,VWS V14.00,2013-01-13 08:29:00,
2013-01-13 02:34:00,0.3,-4.1,30.11,NNE,18,1.0,3.0,81,0.00,,SKC,0.00,0.00,VWS V14.00,2013-01-13 08:34:00,
2013-01-13 02:39:00,0.2,-4.2,30.11,NE,38,3.0,3.0,81,0.00,,SKC,0.00,0.00,VWS V14.00,2013-01-13 08:39:00,
2013-01-13 02:44:00,0.1,-4.4,30.11,ENE,68,2.0,3.0,81,0.00,,SKC,0.00,0.00,VWS V14.00,2013-01-13 08:44:00,
2013-01-13 02:49:00,-0.1,-4.5,30.11,NE,36,2.0,3.0,81,0.00,,SKC,0.00,0.00,VWS V14.00,2013-01-13 08:49:00,
2013-01-13 02:54:00,-0.2,-4.6,30.12,NE,36,2.0,3.0,81,0.00,,SKC,0.00,0.00,VWS V14.00,2013-01-13 08:54:00,
2013-01-13 02:59:00,-0.3,-4.7,30.11,NE,36,3.0,3.0,81,0.00,,SKC,0.00,0.00,VWS V14.00,2013-01-13 08:59:00,
2013-01-13 03:04:00,-0.4,-4.6,30.12,NNE,15,3.0,3.0,82,0.00,,SKC,0.00,0.00,VWS V14.00,2013-01-13 09:04:00,
2013-01-13 03:09:00,-0.5,-4.7,30.12,NNE,15,2.0,3.0,82,0.00,,SKC,0.00,0.00,VWS V14.00,2013-01-13 09:09:00,
2013-01-13 03:16:00,-0.6,-4.8,30.12,NNE,15,2.0,3.0,82,0.00,,SKC,0.00,0.00,VWS V14.00,2013-01-13 09:16:00,
2013-01-13 03:23:00,-0.8,-5.0,30.11,NNE,15,2.0,3.0,82,0.00,,SKC,0.00,0.00,VWS V14.00,2013-01-13 09:23:00,
2013-01-13 03:32:00,-0.8,-4.7,30.12,NNE,15,2.0,3.0,83,0.00,,SKC,0.00,0.00,VWS V14.00,2013-01-13 09:32:00,
2013-01-13 03:37:00,-0.9,-4.8,30.12,NNE,15,2.0,3.0,83,0.00,,SKC,0.00,0.00,VWS V14.00,2013-01-13 09:37:00,
2013-01-13 03:42:00,-1.0,-4.9,30.12,NNE,15,1.0,3.0,83,0.00,,SKC,0.00,0.00,VWS V14.00,2013-01-13 09:42:00,
2013-01-13 03:47:00,-1.0,-4.9,30.12,NNE,15,3.0,3.0,83,0.00,,SKC,0.00,0.00,VWS V14.00,2013-01-13 09:47:00,
2013-01-13 03:52:00,-1.1,-5.0,30.12,NNE,22,2.0,5.0,83,0.00,,SKC,0.00,0.00,VWS V14.00,2013-01-13 09:52:00,
2013-01-13 04:01:00,-1.2,-5.1,30.13,North,11,2.0,5.0,83,0.00,,SKC,0.00,0.00,VWS V14.00,2013-01-13 10:01:00,
2013-01-13 04:08:00,-1.2,-5.1,30.12,North,11,2.0,2.0,83,0.00,,SKC,0.00,0.00,VWS V14.00,2013-01-13 10:08:00,
2013-01-13 04:13:00,-1.2,-5.1,30.12,North,11,2.0,2.0,83,0.00,,SKC,0.00,0.00,VWS V14.00,2013-01-13 10:13:00,
2013-01-13 04:18:00,-1.2,-5.1,30.12,North,11,2.0,2.0,83,0.00,,SKC,0.00,0.00,VWS V14.00,2013-01-13 10:18:00,
2013-01-13 04:23:00,-1.2,-5.1,30.12,North,11,2.0,2.0,83,0.00,,SKC,0.00,0.00,VWS V14.00,2013-01-13 10:23:00,
2013-01-13 04:28:00,-1.2,-5.1,30.12,North,11,2.0,2.0,83,0.00,,SKC,0.00,0.00,VWS V14.00,2013-01-13 10:28:00,
2013-01-13 04:33:00,-1.2,-5.1,30.13,North,11,2.0,2.0,83,0.00,,SKC,0.00,0.00,VWS V14.00,2013-01-13 10:33:00,
2013-01-13 04:38:00,-1.2,-5.1,30.13,North,11,2.0,2.0,83,0.00,,SKC,0.00,0.00,VWS V14.00,2013-01-13 10:38:00,
2013-01-13 04:43:00,-1.2,-5.1,30.13,North,11,2.0,2.0,83,0.00,,SKC,0.00,0.00,VWS V14.00,2013-01-13 10:43:00,
2013-01-13 04:48:00,-1.2,-5.1,30.13,North,11,2.0,2.0,83,0.00,,SKC,0.00,0.00,VWS V14.00,2013-01-13 10:48:00,
2013-01-13 04:53:00,-1.2,-5.1,30.13,North,11,2.0,2.0,83,0.00,,SKC,0.00,0.00,VWS V14.00,2013-01-13 10:53:00,
2013-01-13 04:58:00,-1.2,-5.1,30.13,North,11,2.0,2.0,83,0.00,,SKC,0.00,0.00,VWS V14.00,2013-01-13 10:58:00,
2013-01-13 05:03:00,-1.2,-5.1,30.13,North,11,2.0,2.0,83,0.00,,SKC,0.00,0.00,VWS V14.00,2013-01-13 11:03:00,
2013-01-13 05:08:00,-1.2,-5.1,30.13,North,11,2.0,2.0,83,0.00,,SKC,0.00,0.00,VWS V14.00,2013-01-13 11:08:00,
2013-01-13 05:13:00,-1.2,-5.1,30.14,North,11,2.0,2.0,83,0.00,,SKC,0.00,0.00,VWS V14.00,2013-01-13 11:13:00,
2013-01-13 05:18:00,-1.2,-5.1,30.13,North,11,2.0,2.0,83,0.00,,SKC,0.00,0.00,VWS V14.00,2013-01-13 11:18:00,
2013-01-13 05:23:00,-1.2,-5.1,30.12,North,11,2.0,2.0,83,0.00,,SKC,0.00,0.00,VWS V14.00,2013-01-13 11:23:00,
2013-01-13 05:28:00,-1.2,-5.1,30.12,North,11,2.0,2.0,83,0.00,,SKC,0.00,0.00,VWS V14.00,2013-01-13 11:28:00,
2013-01-13 05:33:00,-1.2,-5.1,30.11,North,11,2.0,2.0,83,0.00,,SKC,0.00,0.00,VWS V14.00,2013-01-13 11:33:00,
2013-01-13 05:38:00,-1.2,-5.1,30.11,North,11,2.0,2.0,83,0.00,,SKC,0.00,0.00,VWS V14.00,2013-01-13 11:38:00,
2013-01-13 05:43:00,-1.2,-5.1,30.11,North,11,2.0,2.0,83,0.00,,SKC,0.00,0.00,VWS V14.00,2013-01-13 11:43:00,
2013-01-13 05:48:00,-1.2,-5.1,30.12,North,11,2.0,2.0,83,0.00,,SKC,0.00,0.00,VWS V14.00,2013-01-13 11:48:00,
2013-01-13 05:53:00,-1.2,-5.1,30.12,North,11,2.0,2.0,83,0.00,,SKC,0.00,0.00,VWS V14.00,2013-01-13 11:53:00,
2013-01-13 05:58:00,-1.2,-5.1,30.12,North,11,2.0,2.0,83,0.00,,SKC,0.00,0.00,VWS V14.00,2013-01-13 11:58:00,
2013-01-13 06:03:00,-1.2,-5.1,30.13,North,11,2.0,2.0,83,0.00,,SKC,0.00,0.00,VWS V14.00,2013-01-13 12:03:00,
2013-01-13 06:08:00,-1.2,-5.1,30.13,North,11,2.0,2.0,83,0.00,,SKC,0.00,0.00,VWS V14.00,2013-01-13 12:08:00,
2013-01-13 06:13:00,-1.2,-5.1,30.13,North,11,2.0,2.0,83,0.00,,SKC,0.00,0.00,VWS V14.00,2013-01-13 12:13:00,
2013-01-13 06:18:00,-1.2,-5.1,30.13,North,11,2.0,2.0,83,0.00,,SKC,0.00,0.00,VWS V14.00,2013-01-13 12:18:00,
2013-01-13 06:23:00,-1.2,-5.1,30.13,North,11,2.0,2.0,83,0.00,,SKC,0.00,0.00,VWS V14.00,2013-01-13 12:23:00,
2013-01-13 06:28:00,-1.2,-5.1,30.13,North,11,2.0,2.0,83,0.00,,SKC,0.00,0.00,VWS V14.00,2013-01-13 12:28:00,
2013-01-13 06:33:00,-1.2,-5.1,30.14,North,11,2.0,2.0,83,0.00,,SKC,0.00,0.00,VWS V14.00,2013-01-13 12:33:00,
2013-01-13 06:38:00,-1.2,-5.1,30.14,North,11,2.0,2.0,83,0.00,,SKC,0.00,0.00,VWS V14.00,2013-01-13 12:38:00,
2013-01-13 06:43:00,-1.2,-5.1,30.14,North,11,2.0,2.0,83,0.00,,SKC,0.00,0.00,VWS V14.00,2013-01-13 12:43:00,
2013-01-13 06:48:00,-1.2,-5.1,30.14,North,11,2.0,2.0,83,0.00,,SKC,0.00,0.00,VWS V14.00,2013-01-13 12:48:00,
2013-01-13 06:53:00,-1.2,-5.1,30.15,North,11,2.0,2.0,83,0.00,,SKC,0.00,0.00,VWS V14.00,2013-01-13 12:53:00,
2013-01-13 06:58:00,-1.2,-5.1,30.15,North,11,2.0,2.0,83,0.00,,SKC,0.00,0.00,VWS V14.00,2013-01-13 12:58:00,
2013-01-13 07:03:00,-1.2,-5.1,30.15,North,11,2.0,2.0,83,0.00,,SKC,0.00,0.00,VWS V14.00,2013-01-13 13:03:00,
2013-01-13 07:08:00,-1.2,-5.1,30.15,North,11,2.0,2.0,83,0.00,,SKC,0.00,0.00,VWS V14.00,2013-01-13 13:08:00,
2013-01-13 07:13:00,-1.2,-5.1,30.15,North,11,2.0,2.0,83,0.00,,SKC,0.00,0.00,VWS V14.00,2013-01-13 13:13:00,
2013-01-13 07:19:00,-1.2,-5.1,30.15,North,11,2.0,2.0,83,0.00,,SKC,0.00,0.00,VWS V14.00,2013-01-13 13:19:00,
2013-01-13 07:24:00,-1.2,-5.1,30.15,North,11,2.0,2.0,83,0.00,,SKC,0.00,0.00,VWS V14.00,2013-01-13 13:24:00,
2013-01-13 07:29:00,-1.2,-5.1,30.15,North,11,2.0,2.0,83,0.00,,SKC,0.00,0.00,VWS V14.00,2013-01-13 13:29:00,
2013-01-13 07:34:00,-1.2,-5.1,30.16,North,11,2.0,2.0,83,0.00,,SKC,0.00,0.00,VWS V14.00,2013-01-13 13:34:00,
2013-01-13 07:39:00,-1.2,-5.1,30.16,North,11,2.0,2.0,83,0.00,,SKC,0.00,0.00,VWS V14.00,2013-01-13 13:39:00,
2013-01-13 07:44:00,-1.2,-5.1,30.16,North,11,2.0,2.0,83,0.00,,SKC,0.00,0.00,VWS V14.00,2013-01-13 13:44:00,
2013-01-13 07:49:00,-1.2,-5.1,30.16,North,11,2.0,2.0,83,0.00,,SKC,0.00,0.00,VWS V14.00,2013-01-13 13:49:00,
2013-01-13 07:54:00,-1.2,-5.1,30.16,North,11,2.0,2.0,83,0.00,,SKC,0.00,0.00,VWS V14.00,2013-01-13 13:54:00,
2013-01-13 07:59:00,-1.2,-5.1,30.17,North,11,2.0,2.0,83,0.00,,SKC,0.00,0.00,VWS V14.00,2013-01-13 13:59:00,
2013-01-13 08:04:00,-1.2,-5.1,30.17,North,11,2.0,2.0,83,0.00,,SKC,0.00,0.00,VWS V14.00,2013-01-13 14:04:00,
2013-01-13 08:09:00,-1.2,-5.1,30.17,North,11,2.0,2.0,83,0.00,,SKC,0.00,0.00,VWS V14.00,2013-01-13 14:09:00,
2013-01-13 08:14:00,-1.2,-5.1,30.17,North,11,2.0,2.0,83,0.00,,SKC,0.00,0.00,VWS V14.00,2013-01-13 14:14:00,
2013-01-13 08:19:00,-1.2,-5.1,30.18,North,11,2.0,2.0,83,0.00,,SKC,0.00,0.00,VWS V14.00,2013-01-13 14:19:00,
2013-01-13 08:24:00,-1.2,-5.1,30.19,North,11,2.0,2.0,83,0.00,,SKC,0.00,0.00,VWS V14.00,2013-01-13 14:24:00,
2013-01-13 08:29:00,-1.2,-5.1,30.19,North,11,2.0,2.0,83,0.00,,SKC,0.00,0.00,VWS V14.00,2013-01-13 14:29:00,
2013-01-13 08:34:00,-1.2,-5.1,30.19,North,11,2.0,2.0,83,0.00,,SKC,0.00,0.00,VWS V14.00,2013-01-13 14:34:00,
2013-01-13 08:39:00,-1.2,-5.1,30.20,North,11,2.0,2.0,83,0.00,,SKC,0.00,0.00,VWS V14.00,2013-01-13 14:39:00,
2013-01-13 08:44:00,-1.2,-5.1,30.20,North,11,2.0,2.0,83,0.00,,SKC,0.00,0.00,VWS V14.00,2013-01-13 14:44:00,
2013-01-13 08:49:00,-1.2,-5.1,30.20,North,11,2.0,2.0,83,0.00,,SKC,0.00,0.00,VWS V14.00,2013-01-13 14:49:00,
2013-01-13 08:54:00,-1.2,-5.1,30.20,North,11,2.0,2.0,83,0.00,,SKC,0.00,0.00,VWS V14.00,2013-01-13 14:54:00,
2013-01-13 08:59:00,-1.2,-5.1,30.20,North,11,2.0,2.0,83,0.00,,SKC,0.00,0.00,VWS V14.00,2013-01-13 14:59:00,
2013-01-13 09:04:00,-1.2,-5.1,30.20,North,11,2.0,2.0,83,0.00,,SKC,0.00,0.00,VWS V14.00,2013-01-13 15:04:00,
2013-01-13 09:09:00,-1.2,-5.1,30.20,North,11,2.0,2.0,83,0.00,,SKC,0.00,0.00,VWS V14.00,2013-01-13 15:09:00,
2013-01-13 09:14:00,-1.2,-5.1,30.20,North,11,2.0,2.0,83,0.00,,SKC,0.00,0.00,VWS V14.00,2013-01-13 15:14:00,
2013-01-13 09:19:00,0.7,-3.5,30.20,NNW,344,2.0,3.0,82,0.00,,SKC,0.00,137.00,VWS V14.00,2013-01-13 15:19:00,
2013-01-13 09:24:00,0.8,-3.7,30.20,North,5,2.0,2.0,81,0.00,,SKC,0.00,146.00,VWS V14.00,2013-01-13 15:24:00,
2013-01-13 09:29:00,0.9,-3.5,30.20,North,355,2.0,2.0,81,0.00,,SKC,0.00,151.00,VWS V14.00,2013-01-13 15:29:00,
2013-01-13 09:34:00,1.1,-3.4,30.20,NNW,342,1.0,3.0,81,0.00,,SKC,0.00,183.00,VWS V14.00,2013-01-13 15:34:00,
2013-01-13 09:39:00,1.3,-3.2,30.21,NNW,342,2.0,2.0,81,0.00,,SKC,0.00,202.00,VWS V14.00,2013-01-13 15:39:00,
2013-01-13 09:44:00,1.5,-3.0,30.21,NNE,13,2.0,4.0,81,0.00,,SKC,0.00,206.00,VWS V14.00,2013-01-13 15:44:00,
2013-01-13 09:49:00,1.8,-2.9,30.21,NNW,347,2.0,3.0,80,0.00,,SKC,0.00,255.00,VWS V14.00,2013-01-13 15:49:00,
2013-01-13 09:54:00,2.0,-2.7,30.21,NW,324,3.0,5.0,80,0.00,,SKC,0.00,230.00,VWS V14.00,2013-01-13 15:54:00,
2013-01-13 09:59:00,2.1,-2.9,30.20,NE,46,2.0,4.0,79,0.00,,SKC,0.00,204.00,VWS V14.00,2013-01-13 15:59:00,
2013-01-13 10:04:00,2.2,-2.8,30.20,North,355,3.0,5.0,79,0.00,,SKC,0.00,209.00,VWS V14.00,2013-01-13 16:04:00,
2013-01-13 10:09:00,2.2,-2.8,30.21,NNE,22,2.0,3.0,79,0.00,,SKC,0.00,179.00,VWS V14.00,2013-01-13 16:09:00,
2013-01-13 10:14:00,2.2,-2.8,30.20,NNE,30,2.0,5.0,79,0.00,,SKC,0.00,193.00,VWS V14.00,2013-01-13 16:14:00,
2013-01-13 10:19:00,2.2,-2.8,30.20,NNW,344,2.0,3.0,79,0.00,,SKC,0.00,250.00,VWS V14.00,2013-01-13 16:19:00,
2013-01-13 10:24:00,2.3,-2.7,30.20,NNW,344,2.0,5.0,79,0.00,,SKC,0.00,213.00,VWS V14.00,2013-01-13 16:24:00,
2013-01-13 10:29:00,2.4,-2.6,30.20,NNE,27,3.0,3.0,79,0.00,,SKC,0.00,213.00,VWS V14.00,2013-01-13 16:29:00,
2013-01-13 10:35:00,2.5,-2.5,30.20,NNE,28,3.0,4.0,79,0.00,,SKC,0.00,204.00,VWS V14.00,2013-01-13 16:35:00,
2013-01-13 10:40:00,2.5,-2.5,30.20,NNE,14,3.0,5.0,79,0.00,,SKC,0.00,220.00,VWS V14.00,2013-01-13 16:40:00,
2013-01-13 10:45:00,2.6,-2.4,30.20,NNE,32,3.0,4.0,79,0.00,,SKC,0.00,248.00,VWS V14.00,2013-01-13 16:45:00,
2013-01-13 10:50:00,2.6,-2.4,30.19,NE,49,3.0,4.0,79,0.00,,SKC,0.00,264.00,VWS V14.00,2013-01-13 16:50:00,
2013-01-13 10:55:00,2.7,-2.6,30.19,NE,46,2.0,4.0,78,0.00,,SKC,0.00,262.00,VWS V14.00,2013-01-13 16:55:00,
2013-01-13 11:00:00,2.6,-2.7,30.19,NE,34,3.0,4.0,78,0.00,,SKC,0.00,257.00,VWS V14.00,2013-01-13 17:00:00,
2013-01-13 11:05:00,2.6,-2.7,30.19,NE,34,3.0,4.0,78,0.00,,SKC,0.00,227.00,VWS V14.00,2013-01-13 17:05:00,
2013-01-13 11:10:00,2.6,-2.7,30.18,NNW,336,3.0,3.0,78,0.00,,SKC,0.00,225.00,VWS V14.00,2013-01-13 17:10:00,
2013-01-13 11:15:00,2.8,-2.5,30.18,NW,325,2.0,3.0,78,0.00,,SKC,0.00,239.00,VWS V14.00,2013-01-13 17:15:00,
2013-01-13 11:20:00,2.8,-2.5,30.18,NW,310,3.0,4.0,78,0.00,,SKC,0.00,227.00,VWS V14.00,2013-01-13 17:20:00,
2013-01-13 11:25:00,2.9,-2.4,30.18,NNW,341,3.0,3.0,78,0.00,,SKC,0.00,243.00,VWS V14.00,2013-01-13 17:25:00,
2013-01-13 11:30:00,3.0,-2.6,30.17,NNW,328,3.0,6.0,77,0.00,,SKC,0.00,413.00,VWS V14.00,2013-01-13 17:30:00,
2013-01-13 11:35:00,3.2,-2.4,30.17,NNW,332,3.0,9.0,77,0.00,,SKC,0.00,290.00,VWS V14.00,2013-01-13 17:35:00,
2013-01-13 11:40:00,3.4,-2.2,30.17,NNE,26,2.0,5.0,77,0.00,,SKC,0.00,388.00,VWS V14.00,2013-01-13 17:40:00,
2013-01-13 11:45:00,3.3,-2.5,30.17,NNW,344,5.0,6.0,76,0.00,,SKC,0.00,359.00,VWS V14.00,2013-01-13 17:45:00,
2013-01-13 11:50:00,3.3,-2.3,30.17,North,355,3.0,9.0,77,0.00,,SKC,0.00,332.00,VWS V14.00,2013-01-13 17:50:00,
2013-01-13 11:55:00,3.5,-2.1,30.17,NNW,343,5.0,6.0,77,0.00,,SKC,0.00,355.00,VWS V14.00,2013-01-13 17:55:00,
2013-01-13 12:00:00,3.7,-1.9,30.16,North,351,3.0,6.0,77,0.00,,SKC,0.00,380.00,VWS V14.00,2013-01-13 18:00:00,
2013-01-13 12:05:00,3.8,-2.1,30.16,NNE,25,3.0,9.0,76,0.00,,SKC,0.00,396.00,VWS V14.00,2013-01-13 18:05:00,
2013-01-13 12:10:00,4.0,-1.6,30.16,North,5,4.0,6.0,77,0.00,,SKC,0.00,450.00,VWS V14.00,2013-01-13 18:10:00,
2013-01-13 12:15:00,4.1,-1.8,30.16,NNW,343,4.0,7.0,76,0.00,,SKC,0.00,373.00,VWS V14.00,2013-01-13 18:15:00,
2013-01-13 12:20:00,4.4,-1.5,30.16,NNW,338,1.0,4.0,76,0.00,,SKC,0.00,360.00,VWS V14.00,2013-01-13 18:20:00,
2013-01-13 12:25:00,4.6,-1.3,30.16,NNE,15,5.0,6.0,76,0.00,,SKC,0.00,315.00,VWS V14.00,2013-01-13 18:25:00,
2013-01-13 12:30:00,4.7,-1.2,30.16,NNW,330,2.0,6.0,76,0.00,,SKC,0.00,325.00,VWS V14.00,2013-01-13 18:30:00,
2013-01-13 12:35:00,4.7,-1.5,30.16,NNE,20,4.0,6.0,75,0.00,,SKC,0.00,385.00,VWS V14.00,2013-01-13 18:35:00,
2013-01-13 12:40:00,4.7,-1.5,30.15,NW,325,3.0,7.0,75,0.00,,SKC,0.00,380.00,VWS V14.00,2013-01-13 18:40:00,
2013-01-13 12:45:00,4.7,-1.5,30.16,North,5,4.0,5.0,75,0.00,,SKC,0.00,374.00,VWS V14.00,2013-01-13 18:45:00,
2013-01-13 12:50:00,4.8,-1.1,30.15,NNW,343,4.0,5.0,76,0.00,,SKC,0.00,355.00,VWS V14.00,2013-01-13 18:50:00,
2013-01-13 12:55:00,4.9,-1.3,30.15,NNE,15,5.0,7.0,75,0.00,,SKC,0.00,341.00,VWS V14.00,2013-01-13 18:55:00,
2013-01-13 13:00:00,5.0,-1.2,30.15,WNW,291,4.0,7.0,75,0.00,,SKC,0.00,345.00,VWS V14.00,2013-01-13 19:00:00,
2013-01-13 13:05:00,4.9,-1.3,30.15,North,349,1.0,6.0,75,0.00,,SKC,0.00,339.00,VWS V14.00,2013-01-13 19:05:00,
2013-01-13 13:10:00,5.0,1.5,30.15,NNW,344,2.0,5.0,85,0.00,,SKC,0.00,322.00,VWS V14.00,2013-01-13 19:10:00,
2013-01-13 13:15:00,5.4,-0.5,30.15,NNW,344,6.0,7.0,76,0.00,,SKC,0.00,373.00,VWS V14.00,2013-01-13 19:15:00,
2013-01-13 13:20:00,5.5,-0.4,30.15,NNE,22,2.0,6.0,76,0.00,,SKC,0.00,320.00,VWS V14.00,2013-01-13 19:20:00,
2013-01-13 13:25:00,5.6,-0.3,30.15,North,5,3.0,5.0,76,0.00,,SKC,0.00,376.00,VWS V14.00,2013-01-13 19:25:00,
2013-01-13 13:30:00,5.9,0.0,30.15,NNE,31,3.0,6.0,76,0.00,,SKC,0.00,399.00,VWS V14.00,2013-01-13 19:30:00,
2013-01-13 13:35:00,6.3,0.4,30.15,North,5,3.0,5.0,76,0.00,,SKC,0.00,417.00,VWS V14.00,2013-01-13 19:35:00,
2013-01-13 13:40:00,6.4,0.2,30.15,NE,46,3.0,9.0,75,0.00,,SKC,0.00,396.00,VWS V14.00,2013-01-13 19:40:00,
2013-01-13 13:46:00,6.5,0.3,30.15,North,11,3.0,8.0,75,0.00,,SKC,0.00,404.00,VWS V14.00,2013-01-13 19:46:00,
2013-01-13 13:51:00,6.7,0.5,30.15,NNE,22,3.0,6.0,75,0.00,,SKC,0.00,385.00,VWS V14.00,2013-01-13 19:51:00,
2013-01-13 13:56:00,6.9,0.7,30.15,NNE,32,6.0,7.0,75,0.00,,SKC,0.00,355.00,VWS V14.00,2013-01-13 19:56:00,
2013-01-13 14:01:00,6.9,0.7,30.16,North,360,2.0,6.0,75,0.00,,SKC,0.00,338.00,VWS V14.00,2013-01-13 20:01:00,
2013-01-13 14:06:00,6.9,0.4,30.16,NNW,338,1.0,5.0,74,0.00,,SKC,0.00,316.00,VWS V14.00,2013-01-13 20:06:00,
2013-01-13 14:11:00,6.8,0.6,30.16,NNE,22,4.0,4.0,75,0.00,,SKC,0.00,262.00,VWS V14.00,2013-01-13 20:11:00,
2013-01-13 14:16:00,6.9,0.7,30.16,NNE,27,3.0,5.0,75,0.00,,SKC,0.00,206.00,VWS V14.00,2013-01-13 20:16:00,
2013-01-13 14:21:00,6.8,0.6,30.17,North,5,4.0,7.0,75,0.00,,SKC,0.00,192.00,VWS V14.00,2013-01-13 20:21:00,
2013-01-13 14:26:00,6.6,0.4,30.17,NNW,341,1.0,5.0,75,0.00,,SKC,0.00,221.00,VWS V14.00,2013-01-13 20:26:00,
2013-01-13 14:31:00,6.5,0.6,30.17,NNE,32,2.0,5.0,76,0.00,,SKC,0.00,200.00,VWS V14.00,2013-01-13 20:31:00,
2013-01-13 14:36:00,6.6,0.7,30.17,NNW,333,2.0,4.0,76,0.00,,SKC,0.00,269.00,VWS V14.00,2013-01-13 20:36:00,
2013-01-13 14:41:00,6.8,0.9,30.17,North,355,3.0,9.0,76,0.00,,SKC,0.00,288.00,VWS V14.00,2013-01-13 20:41:00,
2013-01-13 14:46:00,6.9,0.9,30.18,North,5,4.0,5.0,76,0.00,,SKC,0.00,269.00,VWS V14.00,2013-01-13 20:46:00,
2013-01-13 14:51:00,7.1,1.1,30.18,NNW,346,2.0,6.0,76,0.00,,SKC,0.00,320.00,VWS V14.00,2013-01-13 20:51:00,
2013-01-13 14:56:00,7.3,1.3,30.18,NNW,332,4.0,11.0,76,0.00,,SKC,0.00,269.00,VWS V14.00,2013-01-13 20:56:00,
2013-01-13 15:01:00,7.6,1.6,30.18,North,355,3.0,12.0,76,0.00,,SKC,0.00,267.00,VWS V14.00,2013-01-13 21:01:00,
2013-01-13 15:06:00,7.7,1.4,30.18,NNW,335,3.0,5.0,75,0.00,,SKC,0.00,255.00,VWS V14.00,2013-01-13 21:06:00,
2013-01-13 15:11:00,7.7,1.4,30.18,North,355,3.0,5.0,75,0.00,,SKC,0.00,178.00,VWS V14.00,2013-01-13 21:11:00,
2013-01-13 15:16:00,7.6,1.4,30.18,North,355,1.0,5.0,75,0.00,,SKC,0.00,139.00,VWS V14.00,2013-01-13 21:16:00,
2013-01-13 15:21:00,7.4,1.4,30.19,NNE,17,4.0,6.0,76,0.00,,SKC,0.00,172.00,VWS V14.00,2013-01-13 21:21:00,
2013-01-13 15:26:00,7.3,1.3,30.19,North,5,3.0,5.0,76,0.00,,SKC,0.00,149.00,VWS V14.00,2013-01-13 21:26:00,
2013-01-13 15:31:00,7.3,1.3,30.19,NW,321,5.0,7.0,76,0.00,,SKC,0.00,151.00,VWS V14.00,2013-01-13 21:31:00,
2013-01-13 15:36:00,7.2,1.2,30.19,NNW,342,1.0,3.0,76,0.00,,SKC,0.00,148.00,VWS V14.00,2013-01-13 21:36:00,
2013-01-13 15:41:00,7.1,1.4,30.19,North,5,3.0,6.0,77,0.00,,SKC,0.00,134.00,VWS V14.00,2013-01-13 21:41:00,
2013-01-13 15:46:00,7.1,1.1,30.20,North,360,2.0,5.0,76,0.00,,SKC,0.00,113.00,VWS V14.00,2013-01-13 21:46:00,
2013-01-13 15:51:00,7.0,1.0,30.19,NNW,342,3.0,6.0,76,0.00,,SKC,0.00,100.00,VWS V14.00,2013-01-13 21:51:00,
2013-01-13 15:56:00,6.8,0.9,30.19,NNW,344,1.0,7.0,76,0.00,,SKC,0.00,88.00,VWS V14.00,2013-01-13 21:56:00,
2013-01-13 16:01:00,6.6,0.7,30.19,NNW,344,2.0,4.0,76,0.00,,SKC,0.00,74.00,VWS V14.00,2013-01-13 22:01:00,
2013-01-13 16:06:00,6.5,0.6,30.20,NNW,343,2.0,2.0,76,0.00,,SKC,0.00,70.00,VWS V14.00,2013-01-13 22:06:00,
2013-01-13 16:11:00,6.4,0.5,30.20,NNW,340,3.0,7.0,76,0.00,,SKC,0.00,58.00,VWS V14.00,2013-01-13 22:11:00,
2013-01-13 16:16:00,6.2,0.3,30.20,NNW,340,5.0,7.0,76,0.00,,SKC,0.00,51.00,VWS V14.00,2013-01-13 22:16:00,
2013-01-13 16:21:00,6.2,0.6,30.20,NW,315,4.0,9.0,77,0.00,,SKC,0.00,46.00,VWS V14.00,2013-01-13 22:21:00,
2013-01-13 16:26:00,6.0,0.1,30.20,North,9,1.0,8.0,76,0.00,,SKC,0.00,40.00,VWS V14.00,2013-01-13 22:26:00,
2013-01-13 16:31:00,5.9,0.3,30.20,North,360,2.0,5.0,77,0.00,,SKC,0.00,35.00,VWS V14.00,2013-01-13 22:31:00,
2013-01-13 16:36:00,5.9,0.5,30.20,NNW,334,3.0,4.0,78,0.00,,SKC,0.00,28.00,VWS V14.00,2013-01-13 22:36:00,
2013-01-13 16:41:00,5.8,0.4,30.21,NW,325,2.0,4.0,78,0.00,,SKC,0.00,21.00,VWS V14.00,2013-01-13 22:41:00,
2013-01-13 16:47:00,5.8,0.4,30.21,NNW,333,3.0,5.0,78,0.00,,SKC,0.00,14.00,VWS V14.00,2013-01-13 22:47:00,
2013-01-13 16:52:00,5.8,0.7,30.21,NNW,338,1.0,6.0,79,0.00,,SKC,0.00,11.00,VWS V14.00,2013-01-13 22:52:00,
2013-01-13 16:57:00,5.7,0.6,30.21,NW,316,2.0,7.0,79,0.00,,SKC,0.00,5.00,VWS V14.00,2013-01-13 22:57:00,
2013-01-13 17:02:00,5.7,0.6,30.21,WNW,298,1.0,5.0,79,0.00,,SKC,0.00,0.00,VWS V14.00,2013-01-13 23:02:00,
2013-01-13 17:07:00,5.7,0.6,30.21,NW,314,1.0,6.0,79,0.00,,SKC,0.00,0.00,VWS V14.00,2013-01-13 23:07:00,
2013-01-13 17:12:00,5.7,0.9,30.21,NW,316,1.0,6.0,80,0.00,,SKC,0.00,0.00,VWS V14.00,2013-01-13 23:12:00,
2013-01-13 17:17:00,5.7,0.9,30.21,NW,326,2.0,5.0,80,0.00,,SKC,0.00,0.00,VWS V14.00,2013-01-13 23:17:00,
2013-01-13 17:22:00,5.6,0.8,30.21,NNW,327,2.0,6.0,80,0.00,,SKC,0.00,0.00,VWS V14.00,2013-01-13 23:22:00,
2013-01-13 17:27:00,5.6,1.0,30.21,NNW,333,2.0,4.0,81,0.00,,SKC,0.00,0.00,VWS V14.00,2013-01-13 23:27:00,
2013-01-13 17:32:00,5.6,1.0,30.21,North,349,3.0,4.0,81,0.00,,SKC,0.00,0.00,VWS V14.00,2013-01-13 23:32:00,
2013-01-13 17:37:00,5.6,1.0,30.21,NNW,346,3.0,5.0,81,0.00,,SKC,0.00,0.00,VWS V14.00,2013-01-13 23:37:00,
2013-01-13 17:42:00,5.6,1.3,30.22,NW,315,0.0,5.0,82,0.00,,SKC,0.00,0.00,VWS V14.00,2013-01-13 23:42:00,
2013-01-13 17:47:00,5.5,1.2,30.22,NNW,333,2.0,4.0,82,0.00,,SKC,0.00,0.00,VWS V14.00,2013-01-13 23:47:00,
2013-01-13 17:52:00,5.5,1.2,30.22,NW,325,2.0,4.0,82,0.00,,SKC,0.00,0.00,VWS V14.00,2013-01-13 23:52:00,
2013-01-13 17:57:00,5.4,1.1,30.22,NW,325,0.0,3.0,82,0.00,,SKC,0.00,0.00,VWS V14.00,2013-01-13 23:57:00,
2013-01-13 18:02:00,5.4,1.1,30.22,NW,325,2.0,3.0,82,0.00,,SKC,0.00,0.00,VWS V14.00,2013-01-14 00:02:00,
2013-01-13 18:07:00,5.4,1.1,30.23,NW,325,0.0,4.0,82,0.00,,SKC,0.00,0.00,VWS V14.00,2013-01-14 00:07:00,
2013-01-13 18:12:00,5.3,1.0,30.23,NNW,328,1.0,6.0,82,0.00,,SKC,0.00,0.00,VWS V14.00,2013-01-14 00:12:00,
2013-01-13 18:17:00,5.3,1.3,30.23,NNW,327,1.0,3.0,83,0.00,,SKC,0.00,0.00,VWS V14.00,2013-01-14 00:17:00,
2013-01-13 18:22:00,5.3,1.3,30.23,NNW,332,2.0,4.0,83,0.00,,SKC,0.00,0.00,VWS V14.00,2013-01-14 00:22:00,
2013-01-13 18:27:00,5.3,1.3,30.23,WNW,300,1.0,5.0,83,0.00,,SKC,0.00,0.00,VWS V14.00,2013-01-14 00:27:00,
2013-01-13 18:32:00,5.3,1.3,30.23,NNW,329,1.0,4.0,83,0.00,,SKC,0.00,0.00,VWS V14.00,2013-01-14 00:32:00,
2013-01-13 18:37:00,5.3,1.3,30.23,NNW,330,0.0,3.0,83,0.00,,SKC,0.00,0.00,VWS V14.00,2013-01-14 00:37:00,
2013-01-13 18:42:00,5.3,1.5,30.23,NNW,346,2.0,5.0,84,0.00,,SKC,0.00,0.00,VWS V14.00,2013-01-14 00:42:00,
2013-01-13 18:47:00,5.3,1.5,30.23,NNW,346,0.0,2.0,84,0.00,,SKC,0.00,0.00,VWS V14.00,2013-01-14 00:47:00,
2013-01-13 18:52:00,5.3,1.5,30.23,WNW,298,1.0,6.0,84,0.00,,SKC,0.00,0.00,VWS V14.00,2013-01-14 00:52:00,
2013-01-13 18:57:00,5.2,1.4,30.23,WNW,298,2.0,2.0,84,0.00,,SKC,0.00,0.00,VWS V14.00,2013-01-14 00:57:00,
2013-01-13 19:02:00,5.2,1.4,30.23,WNW,298,0.0,3.0,84,0.00,,SKC,0.00,0.00,VWS V14.00,2013-01-14 01:02:00,
2013-01-13 19:07:00,5.2,1.4,30.23,WNW,299,0.0,4.0,84,0.00,,SKC,0.00,0.00,VWS V14.00,2013-01-14 01:07:00,
2013-01-13 19:12:00,5.2,1.4,30.23,NW,316,1.0,4.0,84,0.00,,SKC,0.00,0.00,VWS V14.00,2013-01-14 01:12:00,
2013-01-13 19:17:00,5.2,1.4,30.23,NW,319,2.0,5.0,84,0.00,,SKC,0.00,0.00,VWS V14.00,2013-01-14 01:17:00,
2013-01-13 19:22:00,5.3,1.5,30.23,NW,319,0.0,2.0,84,0.00,,SKC,0.00,0.00,VWS V14.00,2013-01-14 01:22:00,
2013-01-13 19:27:00,5.2,1.4,30.23,NW,319,2.0,4.0,84,0.00,,SKC,0.00,0.00,VWS V14.00,2013-01-14 01:27:00,
2013-01-13 19:32:00,5.2,1.7,30.23,NNW,342,0.0,5.0,85,0.00,,SKC,0.00,0.00,VWS V14.00,2013-01-14 01:32:00,
2013-01-13 19:38:00,5.3,1.8,30.23,NNW,341,3.0,3.0,85,0.00,,SKC,0.00,0.00,VWS V14.00,2013-01-14 01:38:00,
2013-01-13 19:43:00,5.4,1.9,30.24,NW,309,2.0,4.0,85,0.00,,SKC,0.00,0.00,VWS V14.00,2013-01-14 01:43:00,
2013-01-13 19:48:00,5.4,1.9,30.24,NW,306,3.0,5.0,85,0.00,,SKC,0.00,0.00,VWS V14.00,2013-01-14 01:48:00,
2013-01-13 19:53:00,5.5,2.0,30.24,West,278,3.0,4.0,85,0.00,,SKC,0.00,0.00,VWS V14.00,2013-01-14 01:53:00,
2013-01-13 19:58:00,5.5,2.0,30.24,WNW,284,2.0,4.0,85,0.00,,SKC,0.00,0.00,VWS V14.00,2013-01-14 01:58:00,
2013-01-13 20:03:00,5.5,2.0,30.24,WNW,284,1.0,3.0,85,0.00,,SKC,0.00,0.00,VWS V14.00,2013-01-14 02:03:00,
2013-01-13 20:08:00,5.5,2.0,30.24,WNW,284,0.0,3.0,85,0.00,,SKC,0.00,0.00,VWS V14.00,2013-01-14 02:08:00,
2013-01-13 20:13:00,5.5,2.0,30.24,WNW,284,1.0,3.0,85,0.00,,SKC,0.00,0.00,VWS V14.00,2013-01-14 02:13:00,
2013-01-13 20:18:00,5.5,2.0,30.24,WNW,284,0.0,2.0,85,0.00,,SKC,0.00,0.00,VWS V14.00,2013-01-14 02:18:00,
2013-01-13 20:23:00,5.4,1.9,30.24,WNW,284,0.0,2.0,85,0.00,,SKC,0.00,0.00,VWS V14.00,2013-01-14 02:23:00,
2013-01-13 20:28:00,5.4,1.9,30.24,WNW,284,0.0,2.0,85,0.00,,SKC,0.00,0.00,VWS V14.00,2013-01-14 02:28:00,
2013-01-13 20:33:00,5.3,1.8,30.24,WNW,284,0.0,2.0,85,0.00,,SKC,0.00,0.00,VWS V14.00,2013-01-14 02:33:00,
2013-01-13 20:38:00,5.2,1.7,30.24,WNW,298,0.0,4.0,85,0.00,,SKC,0.00,0.00,VWS V14.00,2013-01-14 02:38:00,
2013-01-13 20:43:00,5.2,1.7,30.24,WNW,298,3.0,3.0,85,0.00,,SKC,0.00,0.00,VWS V14.00,2013-01-14 02:43:00,
2013-01-13 20:48:00,5.2,1.9,30.24,WNW,298,1.0,3.0,86,0.00,,SKC,0.00,0.00,VWS V14.00,2013-01-14 02:48:00,
2013-01-13 20:53:00,5.2,1.9,30.24,WNW,298,0.0,2.0,86,0.00,,SKC,0.00,0.00,VWS V14.00,2013-01-14 02:53:00,
2013-01-13 20:58:00,5.2,1.9,30.24,WNW,298,2.0,2.0,86,0.00,,SKC,0.00,0.00,VWS V14.00,2013-01-14 02:58:00,
2013-01-13 21:03:00,5.2,1.9,30.24,WNW,298,2.0,3.0,86,0.00,,SKC,0.00,0.00,VWS V14.00,2013-01-14 03:03:00,
2013-01-13 21:08:00,5.4,2.4,30.24,NW,316,2.0,5.0,87,0.00,,SKC,0.00,0.00,VWS V14.00,2013-01-14 03:08:00,
2013-01-13 21:13:00,5.5,2.5,30.24,WNW,296,1.0,4.0,87,0.00,,SKC,0.00,0.00,VWS V14.00,2013-01-14 03:13:00,
2013-01-13 21:18:00,5.6,2.6,30.24,WNW,296,1.0,3.0,87,0.00,,SKC,0.00,0.00,VWS V14.00,2013-01-14 03:18:00,
2013-01-13 21:23:00,5.7,2.7,30.24,WNW,296,2.0,3.0,87,0.00,,SKC,0.00,0.00,VWS V14.00,2013-01-14 03:23:00,
2013-01-13 21:28:00,5.8,2.8,30.24,WNW,296,1.0,3.0,87,0.00,,SKC,0.00,0.00,VWS V14.00,2013-01-14 03:28:00,
2013-01-13 21:33:00,6.0,3.0,30.24,WNW,296,2.0,3.0,87,0.00,,SKC,0.00,0.00,VWS V14.00,2013-01-14 03:33:00,
2013-01-13 21:38:00,6.0,3.0,30.25,WNW,296,3.0,3.0,87,0.00,,SKC,0.00,0.00,VWS V14.00,2013-01-14 03:38:00,
2013-01-13 21:43:00,6.1,3.1,30.25,NW,305,1.0,3.0,87,0.00,,SKC,0.00,0.00,VWS V14.00,2013-01-14 03:43:00,
2013-01-13 21:48:00,6.3,3.3,30.25,NW,304,2.0,3.0,87,0.00,,SKC,0.00,0.00,VWS V14.00,2013-01-14 03:48:00,
2013-01-13 21:53:00,6.5,3.5,30.25,NW,305,4.0,4.0,87,0.00,,SKC,0.00,0.00,VWS V14.00,2013-01-14 03:53:00,
2013-01-13 21:58:00,6.6,3.3,30.25,WNW,302,2.0,3.0,86,0.00,,SKC,0.00,0.00,VWS V14.00,2013-01-14 03:58:00,
2013-01-13 22:03:00,6.8,3.5,30.25,WNW,297,1.0,2.0,86,0.00,,SKC,0.00,0.00,VWS V14.00,2013-01-14 04:03:00,
2013-01-13 22:08:00,6.8,3.5,30.25,NW,305,5.0,7.0,86,0.00,,SKC,0.00,0.00,VWS V14.00,2013-01-14 04:08:00,
2013-01-13 22:13:00,6.9,3.6,30.25,NW,317,0.0,1.0,86,0.00,,SKC,0.00,0.00,VWS V14.00,2013-01-14 04:13:00,
2013-01-13 22:18:00,7.0,3.7,30.25,NW,315,2.0,2.0,86,0.00,,SKC,0.00,0.00,VWS V14.00,2013-01-14 04:18:00,
2013-01-13 22:23:00,7.0,3.7,30.25,WNW,298,2.0,5.0,86,0.00,,SKC,0.00,0.00,VWS V14.00,2013-01-14 04:23:00,
2013-01-13 22:28:00,7.1,3.8,30.25,NW,305,1.0,2.0,86,0.00,,SKC,0.00,0.00,VWS V14.00,2013-01-14 04:28:00,
2013-01-13 22:33:00,7.1,3.8,30.25,NW,311,1.0,2.0,86,0.00,,SKC,0.00,0.00,VWS V14.00,2013-01-14 04:33:00,
2013-01-13 22:38:00,7.1,3.8,30.25,NW,311,2.0,3.0,86,0.00,,SKC,0.00,0.00,VWS V14.00,2013-01-14 04:38:00,
2013-01-13 22:43:00,7.1,3.8,30.25,NW,314,3.0,3.0,86,0.00,,SKC,0.00,0.00,VWS V14.00,2013-01-14 04:43:00,
2013-01-13 22:48:00,7.1,3.8,30.25,WNW,300,2.0,3.0,86,0.00,,SKC,0.00,0.00,VWS V14.00,2013-01-14 04:48:00,
2013-01-13 22:53:00,7.1,3.8,30.25,WNW,294,4.0,4.0,86,0.00,,SKC,0.00,0.00,VWS V14.00,2013-01-14 04:53:00,
2013-01-13 22:58:00,7.1,3.8,30.26,WNW,292,3.0,3.0,86,0.00,,SKC,0.00,0.00,VWS V14.00,2013-01-14 04:58:00,
2013-01-13 23:02:00,7.1,3.8,30.26,WNW,302,1.0,4.0,86,0.00,,SKC,0.00,0.00,VWS V14.00,2013-01-14 05:02:00,
2013-01-13 23:03:00,7.1,3.8,30.26,WNW,302,1.0,4.0,86,0.00,,SKC,0.00,0.00,VWS V14.00,2013-01-14 05:03:00,
2013-01-13 23:08:00,7.2,3.9,30.27,WNW,293,2.0,5.0,86,0.00,,SKC,0.00,0.00,VWS V14.00,2013-01-14 05:08:00,
2013-01-13 23:13:00,7.2,3.9,30.27,WNW,300,4.0,5.0,86,0.00,,SKC,0.00,0.00,VWS V14.00,2013-01-14 05:13:00,
2013-01-13 23:14:00,7.2,3.9,30.26,NW,306,4.0,4.0,86,0.00,,SKC,0.00,0.00,VWS V14.00,2013-01-14 05:14:00,
2013-01-13 23:19:00,7.2,3.9,30.26,NW,306,1.0,2.0,86,0.00,,SKC,0.00,0.00,VWS V14.00,2013-01-14 05:19:00,
2013-01-13 23:24:00,7.2,3.9,30.26,NW,309,1.0,2.0,86,0.00,,SKC,0.00,0.00,VWS V14.00,2013-01-14 05:24:00,
2013-01-13 23:29:00,7.2,3.9,30.26,North,355,3.0,4.0,86,0.00,,SKC,0.00,0.00,VWS V14.00,2013-01-14 05:29:00,
2013-01-13 23:34:00,7.1,3.8,30.26,NE,36,2.0,2.0,86,0.00,,SKC,0.00,0.00,VWS V14.00,2013-01-14 05:34:00,
2013-01-13 23:39:00,6.9,3.6,30.27,NNW,333,0.0,1.0,86,0.00,,SKC,0.00,0.00,VWS V14.00,2013-01-14 05:39:00,
2013-01-13 23:44:00,6.8,3.5,30.27,NNW,333,1.0,2.0,86,0.00,,SKC,0.00,0.00,VWS V14.00,2013-01-14 05:44:00,
2013-01-13 23:49:00,6.7,3.4,30.27,NW,317,1.0,3.0,86,0.00,,SKC,0.00,0.00,VWS V14.00,2013-01-14 05:49:00,
2013-01-13 23:54:00,6.6,3.3,30.27,NW,317,1.0,1.0,86,0.00,,SKC,0.00,0.00,VWS V14.00,2013-01-14 05:54:00,
2013-01-13 23:59:00,6.5,3.2,30.28,NW,304,1.0,2.0,86,0.00,,SKC,0.00,0.00,VWS V14.00,2013-01-14 05:59:00,